createdAt,value
2023-02-23T00:01:27.204Z,49.07
2023-02-23T00:04:33.351Z,50.30
2023-02-23T00:11:22.980Z,49.59
2023-02-23T00:14:29.770Z,49.39
2023-02-23T00:17:34.551Z,48.59
2023-02-23T00:20:44.993Z,49.04
2023-02-23T00:23:52.004Z,50.62
2023-02-23T00:26:56.745Z,48.85
2023-02-23T00:30:01.113Z,48.14
2023-02-23T00:33:08.549Z,45.76
2023-02-23T00:36:15.715Z,44.74
2023-02-23T00:39:29.966Z,44.52
2023-02-23T00:42:34.319Z,44.58
2023-02-23T00:45:38.425Z,42.57
2023-02-23T00:48:42.755Z,41.77
2023-02-23T00:51:47.802Z,42.29
2023-02-23T00:54:54.316Z,39.53
2023-02-23T00:58:00.499Z,39.33
2023-02-23T01:01:11.215Z,37.20
2023-02-23T01:04:15.837Z,39.63
2023-02-23T01:07:19.640Z,40.04
2023-02-23T01:14:58.662Z,38.48
2023-02-23T01:24:04.821Z,38.20
2023-02-23T01:27:19.294Z,38.62
2023-02-23T01:30:23.945Z,37.95
2023-02-23T01:33:28.305Z,37.23
2023-02-23T01:36:36.599Z,37.82
2023-02-23T01:39:40.842Z,38.26
2023-02-23T01:42:47.969Z,36.49
2023-02-23T01:45:53.006Z,36.17
2023-02-23T01:48:58.523Z,36.30
2023-02-23T01:52:08.100Z,34.64
2023-02-23T01:55:17.190Z,31.83
2023-02-23T01:58:21.977Z,35.27
2023-02-23T02:01:26.499Z,35.74
2023-02-23T02:04:34.408Z,36.71
2023-02-23T02:07:40.833Z,37.81
2023-02-23T02:10:47.551Z,36.00
2023-02-23T02:13:54.935Z,37.21
2023-02-23T02:17:08.739Z,35.81
2023-02-23T02:20:33.854Z,36.41
2023-02-23T02:23:41.183Z,37.25
2023-02-23T02:27:08.276Z,38.41
2023-02-23T02:30:28.486Z,37.99
2023-02-23T02:33:44.836Z,36.44
2023-02-23T02:37:33.899Z,36.78
2023-02-23T02:40:54.088Z,38.57
2023-02-23T02:44:12.470Z,37.82
2023-02-23T02:47:58.879Z,36.72
2023-02-23T02:51:22.402Z,37.06
2023-02-23T02:54:37.341Z,40.13
2023-02-23T02:57:44.855Z,39.22
2023-02-23T03:01:10.334Z,38.99
2023-02-23T03:04:43.466Z,40.16
2023-02-23T03:08:34.258Z,40.83
2023-02-23T03:12:03.714Z,39.74
2023-02-23T03:15:35.049Z,39.00
2023-02-23T03:19:33.378Z,40.63
2023-02-23T03:23:12.040Z,40.98
2023-02-23T03:26:50.523Z,38.17
2023-02-23T03:30:22.439Z,40.13
2023-02-23T03:34:06.297Z,40.02
2023-02-23T03:37:41.952Z,38.56
2023-02-23T03:41:07.376Z,41.64
2023-02-23T03:44:37.685Z,41.29
2023-02-23T03:48:03.586Z,41.00
2023-02-23T03:51:31.168Z,41.19
2023-02-23T03:55:00.381Z,41.93
2023-02-23T03:58:28.716Z,41.05
2023-02-23T04:01:53.320Z,41.60
2023-02-23T04:05:21.233Z,40.66
2023-02-23T04:08:50.484Z,42.07
2023-02-23T04:12:21.108Z,41.64
2023-02-23T04:15:32.939Z,41.30
2023-02-23T04:18:39.701Z,41.45
2023-02-23T04:21:44.107Z,41.49
2023-02-23T04:24:48.636Z,42.36
2023-02-23T04:31:42.603Z,43.16
2023-02-23T04:34:47.436Z,42.08
2023-02-23T04:37:54.726Z,41.62
2023-02-23T04:40:58.620Z,42.78
2023-02-23T04:44:06.349Z,42.28
2023-02-23T04:47:10.733Z,42.26
2023-02-23T04:50:18.285Z,42.89
2023-02-23T04:53:22.855Z,42.49
2023-02-23T04:56:27.050Z,42.86
2023-02-23T04:59:35.201Z,42.70
2023-02-23T05:02:39.157Z,41.88
2023-02-23T05:05:43.028Z,42.13
2023-02-23T05:08:51.507Z,41.55
2023-02-23T05:11:56.417Z,41.15
2023-02-23T05:15:00.554Z,42.03
2023-02-23T05:18:04.643Z,42.15
2023-02-23T05:21:15.233Z,43.49
2023-02-23T05:24:20.283Z,41.67
2023-02-23T05:27:24.816Z,43.23
2023-02-23T05:30:28.794Z,43.37
2023-02-23T05:33:35.881Z,42.18
2023-02-23T05:36:40.609Z,40.82
2023-02-23T05:39:45.202Z,42.02
2023-02-23T05:42:49.484Z,42.30
2023-02-23T05:45:53.819Z,41.58
2023-02-23T05:49:02.610Z,41.62
2023-02-23T05:52:07.315Z,41.80
2023-02-23T05:55:12.955Z,41.30
2023-02-23T05:58:17.760Z,43.35
2023-02-23T06:01:23.185Z,42.17
2023-02-23T06:04:27.714Z,41.39
2023-02-23T06:07:32.764Z,41.25
2023-02-23T06:10:37.108Z,41.34
2023-02-23T06:13:41.040Z,41.70
2023-02-23T06:16:46.111Z,42.27
2023-02-23T06:19:50.755Z,40.89
2023-02-23T06:22:55.452Z,40.00
2023-02-23T06:26:00.849Z,40.96
2023-02-23T06:29:05.555Z,41.21
2023-02-23T06:32:09.585Z,40.78
2023-02-23T06:35:47.099Z,42.29
2023-02-23T06:38:53.786Z,41.35
2023-02-23T06:41:58.586Z,41.68
2023-02-23T06:45:12.430Z,41.35
2023-02-23T06:48:19.879Z,41.85
2023-02-23T06:51:32.027Z,41.53
2023-02-23T06:54:36.170Z,41.93
2023-02-23T06:57:56.760Z,41.58
2023-02-23T07:01:07.233Z,40.59
2023-02-23T07:04:16.847Z,40.63
2023-02-23T07:07:31.690Z,41.11
2023-02-23T07:10:44.696Z,40.85
2023-02-23T07:13:51.901Z,40.85
2023-02-23T07:16:56.649Z,40.70
2023-02-23T07:20:00.623Z,41.49
2023-02-23T07:23:05.107Z,41.08
2023-02-23T07:26:10.452Z,41.31
2023-02-23T07:29:14.792Z,40.82
2023-02-23T07:32:18.722Z,40.27
2023-02-23T07:35:23.159Z,40.63
2023-02-23T07:38:27.269Z,41.61
2023-02-23T07:41:31.322Z,41.86
2023-02-23T07:44:35.543Z,41.69
2023-02-23T07:47:40.282Z,40.80
2023-02-23T07:50:44.859Z,40.94
2023-02-23T07:53:49.759Z,40.95
2023-02-23T07:56:53.961Z,40.66
2023-02-23T07:59:58.798Z,40.40
2023-02-23T08:03:06.731Z,40.74
2023-02-23T08:06:10.621Z,40.48
2023-02-23T08:09:14.853Z,40.59
2023-02-23T08:12:19.335Z,40.38
2023-02-23T08:15:23.533Z,40.72
2023-02-23T08:18:28.681Z,41.31
2023-02-23T08:21:33.540Z,41.48
2023-02-23T08:24:38.292Z,41.36
2023-02-23T08:27:43.320Z,41.13
2023-02-23T08:30:50.519Z,41.30
2023-02-23T08:33:54.844Z,41.03
2023-02-23T08:37:00.903Z,41.34
2023-02-23T08:40:08.831Z,41.75
2023-02-23T08:43:12.913Z,42.03
2023-02-23T08:46:19.502Z,42.37
2023-02-23T08:49:24.067Z,43.02
2023-02-23T08:52:27.816Z,43.89
2023-02-23T08:55:39.377Z,43.55
2023-02-23T08:58:44.681Z,44.41
2023-02-23T09:01:48.743Z,45.72
2023-02-23T09:04:54.722Z,45.72
2023-02-23T09:07:58.872Z,46.83
2023-02-23T09:11:03.678Z,46.41
2023-02-23T09:14:07.989Z,44.66
2023-02-23T09:17:12.183Z,44.31
2023-02-23T09:20:17.787Z,43.51
2023-02-23T09:23:25.291Z,44.20
2023-02-23T09:26:30.155Z,44.20
2023-02-23T09:29:34.781Z,44.18
2023-02-23T09:32:38.716Z,46.15
2023-02-23T09:35:43.219Z,46.71
2023-02-23T09:38:50.207Z,45.32
2023-02-23T09:42:36.858Z,46.20
2023-02-23T09:46:00.641Z,46.10
2023-02-23T09:49:14.519Z,46.16
2023-02-23T09:52:48.101Z,47.39
2023-02-23T09:55:57.654Z,49.00
2023-02-23T09:59:02.146Z,49.00
2023-02-23T10:02:27.386Z,49.63
2023-02-23T10:05:38.981Z,47.50
2023-02-23T10:08:55.151Z,47.44
2023-02-23T10:12:19.815Z,48.82
2023-02-23T10:15:30.277Z,48.91
2023-02-23T10:19:09.052Z,50.75
2023-02-23T10:25:51.668Z,48.42
2023-02-23T10:29:00.814Z,48.46
2023-02-23T10:32:18.028Z,47.83
2023-02-23T10:35:25.507Z,49.26
2023-02-23T10:38:33.957Z,50.21
2023-02-23T10:41:40.346Z,49.57
2023-02-23T10:44:47.855Z,47.81
2023-02-23T10:47:58.910Z,48.02
2023-02-23T10:51:06.869Z,47.44
2023-02-23T10:54:37.141Z,50.45
2023-02-23T10:57:42.219Z,49.09
2023-02-23T11:01:02.667Z,49.63
2023-02-23T11:04:25.354Z,49.18
2023-02-23T11:07:32.344Z,49.55
2023-02-23T11:10:37.068Z,50.27
2023-02-23T11:13:42.418Z,52.76
2023-02-23T11:16:46.815Z,53.01
2023-02-23T11:19:51.263Z,50.40
2023-02-23T11:22:58.938Z,49.77
2023-02-23T11:26:27.872Z,50.44
2023-02-23T11:29:37.834Z,51.11
2023-02-23T11:32:45.680Z,52.51
2023-02-23T11:35:58.930Z,53.33
2023-02-23T11:39:18.473Z,53.47
2023-02-23T11:42:26.364Z,53.39
2023-02-23T11:45:43.533Z,52.15
2023-02-23T11:49:17.144Z,53.67
2023-02-23T11:52:32.545Z,53.57
2023-02-23T11:55:40.832Z,52.38
2023-02-23T11:58:50.410Z,51.74
2023-02-23T12:01:59.971Z,51.89
2023-02-23T12:05:18.763Z,52.40
2023-02-23T12:08:36.567Z,53.92
2023-02-23T12:11:47.761Z,53.52
2023-02-23T12:15:36.129Z,54.41
2023-02-23T12:18:53.892Z,53.76
2023-02-23T12:22:08.762Z,53.44
2023-02-23T12:25:43.406Z,54.20
2023-02-23T12:28:59.895Z,54.49
2023-02-23T12:32:14.441Z,54.67
2023-02-23T12:35:31.023Z,54.79
2023-02-23T12:39:12.519Z,55.45
2023-02-23T12:42:17.005Z,54.57
2023-02-23T12:45:46.054Z,54.75
2023-02-23T12:49:14.867Z,55.40
2023-02-23T12:52:28.460Z,55.87
2023-02-23T12:55:42.369Z,56.13
2023-02-23T12:59:21.198Z,56.33
2023-02-23T13:02:37.562Z,56.61
2023-02-23T13:06:18.948Z,55.55
2023-02-23T13:10:15.138Z,56.25
2023-02-23T13:13:56.558Z,55.64
2023-02-23T13:17:13.641Z,54.67
2023-02-23T13:20:28.548Z,55.91
2023-02-23T13:24:12.068Z,56.99
2023-02-23T13:27:28.647Z,55.84
2023-02-23T13:30:37.900Z,55.64
2023-02-23T13:33:44.476Z,56.81
2023-02-23T13:36:51.307Z,57.17
2023-02-23T13:40:23.468Z,57.11
2023-02-23T13:43:53.991Z,56.60
2023-02-23T13:47:27.852Z,56.35
2023-02-23T13:50:48.894Z,55.84
2023-02-23T13:54:00.360Z,55.53
2023-02-23T13:57:14.211Z,56.41
2023-02-23T14:00:24.000Z,57.09
2023-02-23T14:03:34.945Z,57.35
2023-02-23T14:06:41.212Z,60.11
2023-02-23T14:09:57.979Z,58.45
2023-02-23T14:13:17.326Z,57.34
2023-02-23T14:16:21.874Z,56.92
2023-02-23T14:19:36.737Z,56.80
2023-02-23T14:23:19.301Z,57.20
2023-02-23T14:26:29.899Z,58.09
2023-02-23T14:29:45.857Z,58.37
2023-02-23T14:32:51.912Z,57.77
2023-02-23T14:35:57.036Z,58.20
2023-02-23T14:39:18.530Z,58.56
2023-02-23T14:42:33.556Z,57.47
2023-02-23T14:45:40.068Z,56.93
2023-02-23T14:49:10.952Z,57.70
2023-02-23T14:52:25.454Z,58.00
2023-02-23T14:55:33.419Z,57.52
2023-02-23T14:58:38.442Z,58.33
2023-02-23T15:01:42.820Z,58.98
2023-02-23T15:04:47.747Z,59.24
2023-02-23T15:07:52.822Z,58.79
2023-02-23T15:11:16.452Z,57.78
2023-02-23T15:14:27.886Z,57.79
2023-02-23T15:17:35.861Z,56.36
2023-02-23T15:20:44.869Z,57.66
2023-02-23T15:24:15.078Z,58.66
2023-02-23T15:27:28.098Z,58.17
2023-02-23T15:30:36.066Z,57.30
2023-02-23T15:33:41.266Z,57.03
2023-02-23T15:36:47.934Z,58.66
2023-02-23T15:40:03.572Z,58.35
2023-02-23T15:43:11.916Z,58.79
2023-02-23T15:46:25.884Z,58.24
2023-02-23T15:49:37.815Z,58.18
2023-02-23T15:52:49.653Z,57.34
2023-02-23T15:56:01.663Z,57.51
2023-02-23T15:59:15.951Z,57.23
2023-02-23T16:02:24.975Z,59.81
2023-02-23T16:05:35.390Z,60.15
2023-02-23T16:08:59.126Z,59.73
2023-02-23T16:12:13.762Z,58.89
2023-02-23T16:15:34.808Z,59.14
2023-02-23T16:18:47.646Z,58.50
2023-02-23T16:21:55.093Z,57.44
2023-02-23T16:25:10.395Z,57.66
2023-02-23T16:28:21.587Z,56.82
2023-02-23T16:31:48.896Z,57.61
2023-02-23T16:35:22.794Z,58.48
2023-02-23T16:38:35.679Z,58.19
2023-02-23T16:41:41.933Z,57.70
2023-02-23T16:44:48.136Z,58.43
2023-02-23T16:48:03.945Z,58.42
2023-02-23T16:51:22.128Z,58.53
2023-02-23T16:54:27.197Z,58.08
2023-02-23T16:57:40.786Z,58.66
2023-02-23T17:00:46.506Z,58.02
2023-02-23T17:03:53.223Z,58.63
2023-02-23T17:06:58.857Z,59.54
2023-02-23T17:10:03.250Z,60.10
2023-02-23T17:13:09.923Z,60.64
2023-02-23T17:16:18.017Z,60.51
2023-02-23T17:19:24.429Z,60.01
2023-02-23T17:22:36.017Z,59.50
2023-02-23T17:25:40.692Z,58.77
2023-02-23T17:28:46.377Z,58.97
2023-02-23T17:31:51.934Z,58.02
2023-02-23T17:34:56.820Z,58.97
2023-02-23T17:38:05.174Z,59.67
2023-02-23T17:41:18.985Z,59.68
2023-02-23T17:44:26.727Z,59.73
2023-02-23T17:47:32.847Z,59.50
2023-02-23T17:50:37.418Z,59.97
2023-02-23T17:53:42.100Z,59.79
2023-02-23T17:56:46.798Z,60.00
2023-02-23T17:59:51.378Z,60.03
2023-02-23T18:02:55.688Z,59.38
2023-02-23T18:06:08.646Z,59.99
2023-02-23T18:09:15.335Z,58.08
2023-02-23T18:12:20.231Z,58.13
2023-02-23T18:15:24.931Z,57.32
2023-02-23T18:18:30.083Z,58.48
2023-02-23T18:21:35.415Z,59.41
2023-02-23T18:24:40.201Z,59.47
2023-02-23T18:27:44.594Z,58.53
2023-02-23T18:30:48.894Z,58.86
2023-02-23T18:33:56.008Z,60.86
2023-02-23T18:37:03.190Z,59.20
2023-02-23T18:40:07.758Z,58.88
2023-02-23T18:43:12.425Z,58.58
2023-02-23T18:46:17.610Z,60.25
2023-02-23T18:49:23.116Z,61.71
2023-02-23T18:52:28.080Z,62.32
2023-02-23T18:55:33.146Z,62.08
2023-02-23T18:58:37.533Z,59.71
2023-02-23T19:01:46.140Z,57.70
2023-02-23T19:04:50.070Z,56.88
2023-02-23T19:07:55.488Z,56.01
2023-02-23T19:10:59.538Z,56.13
2023-02-23T19:14:09.757Z,56.30
2023-02-23T19:17:14.367Z,55.77
2023-02-23T19:20:19.081Z,57.52
2023-02-23T19:23:23.541Z,58.92
2023-02-23T19:26:28.352Z,58.26
2023-02-23T19:29:32.189Z,56.57
2023-02-23T19:32:36.720Z,57.22
2023-02-23T19:35:41.965Z,57.24
2023-02-23T19:38:47.267Z,56.79
2023-02-23T19:41:51.474Z,56.50
2023-02-23T19:44:55.579Z,57.87
2023-02-23T19:47:59.798Z,57.62
2023-02-23T19:51:05.097Z,58.59
2023-02-23T19:54:09.484Z,59.02
2023-02-23T20:06:08.991Z,58.80
2023-02-23T20:09:13.095Z,57.48
2023-02-23T20:12:17.857Z,57.85
2023-02-23T20:15:22.968Z,58.29
2023-02-23T20:32:46.571Z,56.26
2023-02-23T20:36:18.943Z,57.24
2023-02-23T20:39:30.566Z,57.70
2023-02-23T20:42:34.711Z,57.46
2023-02-23T20:45:42.596Z,58.19
2023-02-23T20:48:49.821Z,56.46
2023-02-23T20:51:55.063Z,56.05
2023-02-23T20:55:01.673Z,56.64
2023-02-23T20:58:07.676Z,57.84
2023-02-23T21:01:18.512Z,57.87
2023-02-23T21:04:23.723Z,57.76
2023-02-23T21:07:30.284Z,58.55
2023-02-23T21:10:37.561Z,58.88
2023-02-23T21:13:44.132Z,59.08
2023-02-23T21:16:48.383Z,59.18
2023-02-23T21:19:52.973Z,58.10
2023-02-23T21:22:57.850Z,57.64
2023-02-23T21:26:10.484Z,56.41
2023-02-23T21:29:17.178Z,57.32
2023-02-23T21:32:21.601Z,58.02
2023-02-23T21:35:31.783Z,58.64
2023-02-23T21:38:50.650Z,59.49
2023-02-23T21:41:56.407Z,58.19
2023-02-23T21:45:05.881Z,59.33
2023-02-23T21:48:17.691Z,59.90
2023-02-23T21:51:22.287Z,59.01
2023-02-23T21:54:39.831Z,58.83
2023-02-23T21:57:45.563Z,57.53
2023-02-23T22:00:54.178Z,56.69
2023-02-23T22:04:02.028Z,58.78
2023-02-23T22:07:07.383Z,58.14
2023-02-23T22:10:11.958Z,57.45
2023-02-23T22:13:16.087Z,56.48
2023-02-23T22:16:20.655Z,56.21
2023-02-23T22:19:25.178Z,57.13
2023-02-23T22:22:29.597Z,58.58
2023-02-23T22:25:34.257Z,59.63
2023-02-23T22:28:38.572Z,58.55
2023-02-23T22:31:43.106Z,57.75
2023-02-23T22:34:47.642Z,58.75
2023-02-23T22:37:51.933Z,58.70
2023-02-23T22:40:56.365Z,60.37
2023-02-23T22:44:00.772Z,61.70
2023-02-23T22:47:05.439Z,61.23
2023-02-23T22:50:12.841Z,60.34
2023-02-23T22:53:17.737Z,59.67
2023-02-23T22:56:22.261Z,61.86
2023-02-23T22:59:29.476Z,61.30
2023-02-23T23:02:34.445Z,59.35
2023-02-23T23:05:38.708Z,57.12
2023-02-23T23:08:46.425Z,53.98
2023-02-23T23:11:51.678Z,54.38
2023-02-23T23:15:02.249Z,57.23
2023-02-23T23:18:14.796Z,55.47
2023-02-23T23:21:22.671Z,55.51
2023-02-23T23:24:27.227Z,57.57
2023-02-23T23:27:34.028Z,57.10
2023-02-23T23:30:38.256Z,54.42
2023-02-23T23:33:48.560Z,52.79
2023-02-23T23:36:53.736Z,51.23
2023-02-23T23:40:02.967Z,54.36
2023-02-23T23:43:08.422Z,52.14
2023-02-23T23:46:12.376Z,52.42
2023-02-23T23:49:21.478Z,53.69
2023-02-23T23:52:26.069Z,54.83
2023-02-23T23:55:32.267Z,55.87
2023-02-23T23:58:37.652Z,56.45
